sensor_id;sensor_type;location;lat;lon;timestamp;pressure;altitude;pressure_sealevel;temperature;humidity
13407;BME280;6774;48.208;10.766;2023-03-25T00:00:06;95049.44;;;8.79;82.55
13407;BME280;6774;48.208;10.766;2023-03-25T00:02:38;95033.97;;;8.69;82.02
13407;BME280;6774;48.208;10.766;2023-03-25T00:05:07;95054.00;;;8.70;82.43
13407;BME280;6774;48.208;10.766;2023-03-25T00:07:37;95038.72;;;8.80;81.52
13407;BME280;6774;48.208;10.766;2023-03-25T00:10:06;95044.34;;;8.77;80.98
13407;BME280;6774;48.208;10.766;2023-03-25T00:12:34;95029.63;;;8.83;81.23
13407;BME280;6774;48.208;10.766;2023-03-25T00:15:02;95044.09;;;8.72;80.80
13407;BME280;6774;48.208;10.766;2023-03-25T00:17:31;95036.72;;;8.82;80.79
13407;BME280;6774;48.208;10.766;2023-03-25T00:19:59;95041.97;;;8.82;80.52
13407;BME280;6774;48.208;10.766;2023-03-25T00:22:27;95025.81;;;8.86;80.86
13407;BME280;6774;48.208;10.766;2023-03-25T00:24:56;95028.94;;;8.96;80.40
13407;BME280;6774;48.208;10.766;2023-03-25T00:27:24;95033.75;;;8.92;79.98
13407;BME280;6774;48.208;10.766;2023-03-25T00:29:52;95018.78;;;8.93;80.18
13407;BME280;6774;48.208;10.766;2023-03-25T00:32:19;95008.81;;;9.09;79.11
13407;BME280;6774;48.208;10.766;2023-03-25T00:34:47;95019.53;;;8.87;79.32
13407;BME280;6774;48.208;10.766;2023-03-25T00:37:15;95031.53;;;8.89;78.96
13407;BME280;6774;48.208;10.766;2023-03-25T00:39:43;95029.19;;;9.01;79.33
13407;BME280;6774;48.208;10.766;2023-03-25T00:42:16;95013.81;;;9.04;79.41
13407;BME280;6774;48.208;10.766;2023-03-25T00:44:51;95019.66;;;9.00;78.99
13407;BME280;6774;48.208;10.766;2023-03-25T00:47:21;95020.88;;;8.97;79.15
13407;BME280;6774;48.208;10.766;2023-03-25T00:49:49;95015.16;;;8.94;79.62
13407;BME280;6774;48.208;10.766;2023-03-25T00:52:18;95025.56;;;8.80;78.92
13407;BME280;6774;48.208;10.766;2023-03-25T00:54:48;95017.06;;;8.78;79.51
13407;BME280;6774;48.208;10.766;2023-03-25T00:57:21;95020.81;;;8.91;79.58
13407;BME280;6774;48.208;10.766;2023-03-25T00:59:48;95010.38;;;9.04;79.01
13407;BME280;6774;48.208;10.766;2023-03-25T01:02:17;95007.38;;;9.07;79.14
13407;BME280;6774;48.208;10.766;2023-03-25T01:04:47;95018.25;;;8.97;79.63
13407;BME280;6774;48.208;10.766;2023-03-25T01:07:16;95003.88;;;9.00;79.39
13407;BME280;6774;48.208;10.766;2023-03-25T01:09:44;95006.78;;;8.83;79.88
13407;BME280;6774;48.208;10.766;2023-03-25T01:12:13;95022.47;;;8.77;80.13
13407;BME280;6774;48.208;10.766;2023-03-25T01:14:42;95011.78;;;8.78;81.11
13407;BME280;6774;48.208;10.766;2023-03-25T01:17:10;95008.28;;;8.71;80.51
13407;BME280;6774;48.208;10.766;2023-03-25T01:19:38;94993.41;;;8.85;79.78
13407;BME280;6774;48.208;10.766;2023-03-25T01:22:06;94999.63;;;8.77;79.79
13407;BME280;6774;48.208;10.766;2023-03-25T01:24:34;95010.91;;;8.71;79.96
13407;BME280;6774;48.208;10.766;2023-03-25T01:27:02;95002.03;;;8.72;80.87
13407;BME280;6774;48.208;10.766;2023-03-25T01:29:30;95000.25;;;8.58;80.94
13407;BME280;6774;48.208;10.766;2023-03-25T01:31:59;94994.75;;;8.74;80.00
13407;BME280;6774;48.208;10.766;2023-03-25T01:34:27;94983.22;;;8.54;81.30
13407;BME280;6774;48.208;10.766;2023-03-25T01:36:55;95013.28;;;8.66;80.90
13407;BME280;6774;48.208;10.766;2023-03-25T01:39:23;95005.19;;;8.68;80.37
13407;BME280;6774;48.208;10.766;2023-03-25T01:41:51;95001.41;;;8.70;80.48
13407;BME280;6774;48.208;10.766;2023-03-25T01:47:27;94995.25;;;8.84;79.52
13407;BME280;6774;48.208;10.766;2023-03-25T01:49:55;94998.00;;;8.76;79.59
13407;BME280;6774;48.208;10.766;2023-03-25T01:52:24;94993.94;;;8.74;79.30
13407;BME280;6774;48.208;10.766;2023-03-25T01:54:54;94993.63;;;8.62;80.54
13407;BME280;6774;48.208;10.766;2023-03-25T01:57:23;94983.03;;;8.77;79.72
13407;BME280;6774;48.208;10.766;2023-03-25T01:59:53;94981.22;;;8.56;80.21
13407;BME280;6774;48.208;10.766;2023-03-25T02:02:21;94987.53;;;8.40;80.89
13407;BME280;6774;48.208;10.766;2023-03-25T02:04:56;94987.09;;;8.37;80.40
13407;BME280;6774;48.208;10.766;2023-03-25T02:07:29;94979.91;;;8.09;81.54
13407;BME280;6774;48.208;10.766;2023-03-25T02:10:00;94985.28;;;8.22;81.20
13407;BME280;6774;48.208;10.766;2023-03-25T02:12:30;94982.81;;;8.14;80.59
13407;BME280;6774;48.208;10.766;2023-03-25T02:15:00;94986.06;;;8.16;80.84
13407;BME280;6774;48.208;10.766;2023-03-25T02:17:34;94978.41;;;8.21;80.02
13407;BME280;6774;48.208;10.766;2023-03-25T02:23:46;95005.59;;;8.28;78.05
13407;BME280;6774;48.208;10.766;2023-03-25T02:26:37;95000.78;;;8.32;77.97
13407;BME280;6774;48.208;10.766;2023-03-25T02:29:12;94985.97;;;8.46;78.19
13407;BME280;6774;48.208;10.766;2023-03-25T02:31:58;94979.28;;;8.28;78.75
13407;BME280;6774;48.208;10.766;2023-03-25T02:34:50;94986.66;;;8.18;78.42
13407;BME280;6774;48.208;10.766;2023-03-25T02:38:03;94974.50;;;8.32;78.50
13407;BME280;6774;48.208;10.766;2023-03-25T02:40:39;94978.50;;;8.28;78.81
13407;BME280;6774;48.208;10.766;2023-03-25T02:43:14;94984.94;;;8.25;78.95
13407;BME280;6774;48.208;10.766;2023-03-25T02:45:50;94964.69;;;8.05;78.53
13407;BME280;6774;48.208;10.766;2023-03-25T02:48:21;94981.16;;;8.13;78.87
13407;BME280;6774;48.208;10.766;2023-03-25T02:50:51;94976.28;;;8.10;78.87
13407;BME280;6774;48.208;10.766;2023-03-25T02:53:26;94973.75;;;8.02;79.52
13407;BME280;6774;48.208;10.766;2023-03-25T02:55:59;94981.91;;;8.07;79.17
13407;BME280;6774;48.208;10.766;2023-03-25T02:58:29;94969.78;;;8.06;78.96
13407;BME280;6774;48.208;10.766;2023-03-25T03:00:57;94976.31;;;7.95;79.39
13407;BME280;6774;48.208;10.766;2023-03-25T03:03:26;94969.31;;;8.03;79.26
13407;BME280;6774;48.208;10.766;2023-03-25T03:05:59;94991.13;;;8.03;79.36
13407;BME280;6774;48.208;10.766;2023-03-25T03:08:45;94968.69;;;7.86;80.21
13407;BME280;6774;48.208;10.766;2023-03-25T03:11:17;94979.88;;;7.88;80.00
13407;BME280;6774;48.208;10.766;2023-03-25T03:13:58;94987.03;;;7.79;80.33
13407;BME280;6774;48.208;10.766;2023-03-25T03:16:32;94978.25;;;7.72;80.06
13407;BME280;6774;48.208;10.766;2023-03-25T03:19:09;94987.56;;;7.75;80.27
13407;BME280;6774;48.208;10.766;2023-03-25T03:21:48;94997.72;;;7.78;80.17
13407;BME280;6774;48.208;10.766;2023-03-25T03:24:26;94991.56;;;7.70;80.52
13407;BME280;6774;48.208;10.766;2023-03-25T03:27:00;94989.94;;;7.69;80.06
13407;BME280;6774;48.208;10.766;2023-03-25T03:29:34;94986.41;;;7.62;80.10
13407;BME280;6774;48.208;10.766;2023-03-25T03:32:07;94976.97;;;7.83;79.35
13407;BME280;6774;48.208;10.766;2023-03-25T03:34:41;94977.78;;;7.83;78.91
13407;BME280;6774;48.208;10.766;2023-03-25T03:37:13;95001.06;;;7.72;79.28
13407;BME280;6774;48.208;10.766;2023-03-25T03:39:46;94980.88;;;7.72;79.15
13407;BME280;6774;48.208;10.766;2023-03-25T03:42:17;94985.94;;;7.74;79.15
13407;BME280;6774;48.208;10.766;2023-03-25T03:44:51;95006.31;;;7.72;78.55
13407;BME280;6774;48.208;10.766;2023-03-25T03:47:23;94993.56;;;7.68;78.30
13407;BME280;6774;48.208;10.766;2023-03-25T03:49:56;94993.47;;;7.62;78.53
13407;BME280;6774;48.208;10.766;2023-03-25T03:52:26;94988.66;;;7.65;78.51
13407;BME280;6774;48.208;10.766;2023-03-25T03:55:01;95001.78;;;7.65;77.88
13407;BME280;6774;48.208;10.766;2023-03-25T03:57:33;95004.06;;;7.68;77.59
13407;BME280;6774;48.208;10.766;2023-03-25T04:00:04;95015.81;;;7.73;76.86
13407;BME280;6774;48.208;10.766;2023-03-25T04:02:40;95006.22;;;7.80;77.50
13407;BME280;6774;48.208;10.766;2023-03-25T04:05:11;95013.09;;;7.95;76.87
13407;BME280;6774;48.208;10.766;2023-03-25T04:07:43;95006.75;;;7.90;76.87
13407;BME280;6774;48.208;10.766;2023-03-25T04:10:17;95022.03;;;8.01;76.50
13407;BME280;6774;48.208;10.766;2023-03-25T04:12:50;95019.50;;;7.93;75.71
13407;BME280;6774;48.208;10.766;2023-03-25T04:15:19;95009.81;;;8.08;76.29
13407;BME280;6774;48.208;10.766;2023-03-25T04:17:47;95004.78;;;8.13;75.70
13407;BME280;6774;48.208;10.766;2023-03-25T04:20:19;95021.03;;;8.02;76.27
13407;BME280;6774;48.208;10.766;2023-03-25T04:22:50;95019.59;;;8.14;75.20
13407;BME280;6774;48.208;10.766;2023-03-25T04:25:19;95005.06;;;8.18;75.25
13407;BME280;6774;48.208;10.766;2023-03-25T04:27:50;95020.31;;;8.08;75.75
13407;BME280;6774;48.208;10.766;2023-03-25T04:30:19;95018.47;;;8.23;75.36
13407;BME280;6774;48.208;10.766;2023-03-25T04:32:47;95014.84;;;8.24;75.31
13407;BME280;6774;48.208;10.766;2023-03-25T04:35:18;95005.78;;;8.12;75.68
13407;BME280;6774;48.208;10.766;2023-03-25T04:37:46;95010.75;;;8.22;76.18
13407;BME280;6774;48.208;10.766;2023-03-25T04:40:15;95010.25;;;8.12;76.74
13407;BME280;6774;48.208;10.766;2023-03-25T04:42:46;95018.31;;;8.10;77.88
13407;BME280;6774;48.208;10.766;2023-03-25T04:45:14;94992.34;;;8.22;77.55
13407;BME280;6774;48.208;10.766;2023-03-25T04:47:43;95011.63;;;7.93;76.83
13407;BME280;6774;48.208;10.766;2023-03-25T04:50:19;95007.13;;;7.87;77.91
13407;BME280;6774;48.208;10.766;2023-03-25T04:52:47;95016.16;;;7.99;77.53
13407;BME280;6774;48.208;10.766;2023-03-25T04:55:16;95016.81;;;7.86;77.95
13407;BME280;6774;48.208;10.766;2023-03-25T04:57:47;95027.06;;;7.96;78.27
13407;BME280;6774;48.208;10.766;2023-03-25T05:00:17;95035.31;;;7.78;77.51
13407;BME280;6774;48.208;10.766;2023-03-25T05:02:47;95039.53;;;7.64;77.61
13407;BME280;6774;48.208;10.766;2023-03-25T05:05:16;95030.75;;;7.72;78.15
13407;BME280;6774;48.208;10.766;2023-03-25T05:07:45;95020.25;;;7.72;77.36
13407;BME280;6774;48.208;10.766;2023-03-25T05:10:15;95023.78;;;7.64;78.30
13407;BME280;6774;48.208;10.766;2023-03-25T05:12:43;95020.88;;;7.74;78.13
13407;BME280;6774;48.208;10.766;2023-03-25T05:15:13;95039.00;;;7.54;79.37
13407;BME280;6774;48.208;10.766;2023-03-25T05:17:40;95036.75;;;7.51;79.71
13407;BME280;6774;48.208;10.766;2023-03-25T05:20:10;95047.31;;;7.43;79.22
13407;BME280;6774;48.208;10.766;2023-03-25T05:22:38;95062.16;;;7.36;79.43
13407;BME280;6774;48.208;10.766;2023-03-25T05:25:08;95059.22;;;7.31;80.26
13407;BME280;6774;48.208;10.766;2023-03-25T05:27:37;95045.59;;;7.35;79.92
13407;BME280;6774;48.208;10.766;2023-03-25T05:30:06;95058.97;;;7.40;79.33
13407;BME280;6774;48.208;10.766;2023-03-25T05:32:35;95049.69;;;7.53;78.45
13407;BME280;6774;48.208;10.766;2023-03-25T05:35:07;95064.47;;;7.31;78.54
13407;BME280;6774;48.208;10.766;2023-03-25T05:37:36;95077.19;;;7.42;78.23
13407;BME280;6774;48.208;10.766;2023-03-25T05:40:05;95064.88;;;7.43;77.18
13407;BME280;6774;48.208;10.766;2023-03-25T05:42:42;95064.00;;;7.50;76.87
13407;BME280;6774;48.208;10.766;2023-03-25T05:45:14;95077.34;;;7.40;76.61
13407;BME280;6774;48.208;10.766;2023-03-25T05:47:43;95078.91;;;7.50;76.19
13407;BME280;6774;48.208;10.766;2023-03-25T05:50:11;95081.63;;;7.56;74.96
13407;BME280;6774;48.208;10.766;2023-03-25T05:52:40;95082.53;;;7.49;74.38
13407;BME280;6774;48.208;10.766;2023-03-25T05:55:11;95091.59;;;7.46;75.16
13407;BME280;6774;48.208;10.766;2023-03-25T05:57:41;95101.72;;;7.49;74.97
13407;BME280;6774;48.208;10.766;2023-03-25T06:00:10;95099.91;;;7.50;74.70
13407;BME280;6774;48.208;10.766;2023-03-25T06:02:38;95105.06;;;7.43;74.28
13407;BME280;6774;48.208;10.766;2023-03-25T06:05:11;95112.44;;;7.62;74.18
13407;BME280;6774;48.208;10.766;2023-03-25T06:07:40;95109.88;;;7.54;74.03
13407;BME280;6774;48.208;10.766;2023-03-25T06:10:09;95120.09;;;7.49;75.05
13407;BME280;6774;48.208;10.766;2023-03-25T06:12:37;95112.16;;;7.57;74.78
13407;BME280;6774;48.208;10.766;2023-03-25T06:15:07;95127.28;;;7.55;75.00
13407;BME280;6774;48.208;10.766;2023-03-25T06:17:35;95122.47;;;7.59;74.89
13407;BME280;6774;48.208;10.766;2023-03-25T06:20:07;95137.16;;;7.53;75.49
13407;BME280;6774;48.208;10.766;2023-03-25T06:22:40;95133.44;;;7.62;75.82
13407;BME280;6774;48.208;10.766;2023-03-25T06:25:09;95137.84;;;7.47;75.81
13407;BME280;6774;48.208;10.766;2023-03-25T06:27:37;95133.53;;;7.54;76.64
13407;BME280;6774;48.208;10.766;2023-03-25T06:30:08;95136.22;;;7.46;77.29
13407;BME280;6774;48.208;10.766;2023-03-25T06:32:36;95150.19;;;7.24;76.59
13407;BME280;6774;48.208;10.766;2023-03-25T06:35:05;95143.47;;;7.44;76.19
13407;BME280;6774;48.208;10.766;2023-03-25T06:37:35;95131.31;;;7.43;77.09
13407;BME280;6774;48.208;10.766;2023-03-25T06:40:11;95145.59;;;7.63;76.98
13407;BME280;6774;48.208;10.766;2023-03-25T06:42:39;95147.38;;;7.63;77.23
13407;BME280;6774;48.208;10.766;2023-03-25T06:45:28;95164.56;;;7.51;78.24
13407;BME280;6774;48.208;10.766;2023-03-25T06:48:04;95156.84;;;7.49;77.88
13407;BME280;6774;48.208;10.766;2023-03-25T06:50:32;95155.66;;;7.75;77.58
13407;BME280;6774;48.208;10.766;2023-03-25T06:52:59;95182.31;;;7.26;78.67
13407;BME280;6774;48.208;10.766;2023-03-25T06:55:30;95168.13;;;7.35;78.99
13407;BME280;6774;48.208;10.766;2023-03-25T06:57:58;95176.75;;;7.21;77.98
13407;BME280;6774;48.208;10.766;2023-03-25T07:00:25;95195.59;;;7.01;79.13
13407;BME280;6774;48.208;10.766;2023-03-25T07:02:53;95193.84;;;7.17;79.14
13407;BME280;6774;48.208;10.766;2023-03-25T07:05:21;95185.94;;;7.25;79.17
13407;BME280;6774;48.208;10.766;2023-03-25T07:07:49;95184.66;;;7.44;78.57
13407;BME280;6774;48.208;10.766;2023-03-25T07:10:17;95179.28;;;7.60;78.38
13407;BME280;6774;48.208;10.766;2023-03-25T07:12:46;95181.56;;;7.78;78.06
13407;BME280;6774;48.208;10.766;2023-03-25T07:15:14;95172.59;;;7.72;77.90
13407;BME280;6774;48.208;10.766;2023-03-25T07:17:43;95186.16;;;7.76;78.15
13407;BME280;6774;48.208;10.766;2023-03-25T07:20:15;95170.47;;;7.67;79.26
13407;BME280;6774;48.208;10.766;2023-03-25T07:22:42;95182.22;;;7.80;80.32
13407;BME280;6774;48.208;10.766;2023-03-25T07:25:10;95184.91;;;7.72;78.54
13407;BME280;6774;48.208;10.766;2023-03-25T07:27:39;95186.25;;;8.05;78.65
13407;BME280;6774;48.208;10.766;2023-03-25T07:30:13;95182.84;;;7.82;78.84
13407;BME280;6774;48.208;10.766;2023-03-25T07:32:42;95176.72;;;7.66;79.62
13407;BME280;6774;48.208;10.766;2023-03-25T07:35:10;95171.63;;;7.88;79.22
13407;BME280;6774;48.208;10.766;2023-03-25T07:37:38;95164.94;;;8.00;78.87
13407;BME280;6774;48.208;10.766;2023-03-25T07:40:07;95158.16;;;8.50;76.80
13407;BME280;6774;48.208;10.766;2023-03-25T07:42:35;95173.03;;;8.43;77.33
13407;BME280;6774;48.208;10.766;2023-03-25T07:45:34;95177.38;;;8.36;77.23
13407;BME280;6774;48.208;10.766;2023-03-25T07:48:09;95161.69;;;8.27;77.29
13407;BME280;6774;48.208;10.766;2023-03-25T07:50:40;95175.84;;;8.56;76.68
13407;BME280;6774;48.208;10.766;2023-03-25T07:53:08;95181.38;;;8.61;77.06
13407;BME280;6774;48.208;10.766;2023-03-25T07:55:36;95173.53;;;8.68;76.96
13407;BME280;6774;48.208;10.766;2023-03-25T07:58:04;95171.47;;;8.78;77.69
13407;BME280;6774;48.208;10.766;2023-03-25T08:00:33;95175.84;;;8.56;76.94
13407;BME280;6774;48.208;10.766;2023-03-25T08:03:01;95180.56;;;8.46;77.56
13407;BME280;6774;48.208;10.766;2023-03-25T08:05:29;95170.34;;;8.13;77.01
13407;BME280;6774;48.208;10.766;2023-03-25T08:07:57;95179.38;;;8.34;77.39
13407;BME280;6774;48.208;10.766;2023-03-25T08:10:26;95171.09;;;8.66;77.64
13407;BME280;6774;48.208;10.766;2023-03-25T08:12:54;95176.81;;;8.70;76.70
13407;BME280;6774;48.208;10.766;2023-03-25T08:15:22;95193.25;;;8.57;77.05
13407;BME280;6774;48.208;10.766;2023-03-25T08:17:51;95190.06;;;8.32;76.55
13407;BME280;6774;48.208;10.766;2023-03-25T08:20:19;95201.44;;;8.10;76.89
13407;BME280;6774;48.208;10.766;2023-03-25T08:22:47;95188.06;;;8.05;80.08
13407;BME280;6774;48.208;10.766;2023-03-25T08:25:14;95195.91;;;7.90;80.72
13407;BME280;6774;48.208;10.766;2023-03-25T08:27:43;95197.91;;;7.65;80.92
13407;BME280;6774;48.208;10.766;2023-03-25T08:30:11;95203.91;;;7.74;81.68
13407;BME280;6774;48.208;10.766;2023-03-25T08:32:40;95203.72;;;7.60;81.92
13407;BME280;6774;48.208;10.766;2023-03-25T08:35:13;95210.91;;;7.81;82.29
13407;BME280;6774;48.208;10.766;2023-03-25T08:37:41;95209.47;;;7.79;81.63
13407;BME280;6774;48.208;10.766;2023-03-25T08:40:09;95199.38;;;8.05;81.00
13407;BME280;6774;48.208;10.766;2023-03-25T08:42:37;95201.34;;;8.03;81.17
13407;BME280;6774;48.208;10.766;2023-03-25T08:45:05;95194.69;;;8.45;80.23
13407;BME280;6774;48.208;10.766;2023-03-25T08:47:33;95193.19;;;8.87;77.68
13407;BME280;6774;48.208;10.766;2023-03-25T08:50:01;95189.84;;;9.14;79.46
13407;BME280;6774;48.208;10.766;2023-03-25T08:52:30;95195.03;;;9.44;78.24
13407;BME280;6774;48.208;10.766;2023-03-25T08:54:58;95191.00;;;9.26;77.57
13407;BME280;6774;48.208;10.766;2023-03-25T08:57:26;95201.28;;;9.21;77.26
13407;BME280;6774;48.208;10.766;2023-03-25T08:59:53;95198.75;;;9.13;76.48
13407;BME280;6774;48.208;10.766;2023-03-25T09:02:21;95190.91;;;9.34;76.51
13407;BME280;6774;48.208;10.766;2023-03-25T09:04:49;95184.31;;;8.88;74.43
13407;BME280;6774;48.208;10.766;2023-03-25T09:07:17;95182.91;;;9.06;75.97
13407;BME280;6774;48.208;10.766;2023-03-25T09:09:46;95168.69;;;9.44;75.59
13407;BME280;6774;48.208;10.766;2023-03-25T09:12:14;95166.53;;;9.32;73.61
13407;BME280;6774;48.208;10.766;2023-03-25T09:14:42;95163.38;;;9.37;75.26
13407;BME280;6774;48.208;10.766;2023-03-25T09:17:10;95175.94;;;8.99;74.41
13407;BME280;6774;48.208;10.766;2023-03-25T09:19:38;95156.66;;;8.77;73.95
13407;BME280;6774;48.208;10.766;2023-03-25T09:22:06;95144.19;;;8.86;73.80
13407;BME280;6774;48.208;10.766;2023-03-25T09:24:34;95178.59;;;9.20;73.31
13407;BME280;6774;48.208;10.766;2023-03-25T09:27:03;95151.88;;;9.66;75.47
13407;BME280;6774;48.208;10.766;2023-03-25T09:29:31;95182.59;;;9.59;74.10
13407;BME280;6774;48.208;10.766;2023-03-25T09:31:58;95144.94;;;10.21;72.82
13407;BME280;6774;48.208;10.766;2023-03-25T09:34:27;95159.16;;;10.20;72.50
13407;BME280;6774;48.208;10.766;2023-03-25T09:36:54;95132.88;;;10.33;71.68
13407;BME280;6774;48.208;10.766;2023-03-25T09:39:22;95148.22;;;10.23;71.70
13407;BME280;6774;48.208;10.766;2023-03-25T09:42:07;95137.16;;;10.34;73.16
13407;BME280;6774;48.208;10.766;2023-03-25T09:44:51;95157.19;;;10.01;71.78
13407;BME280;6774;48.208;10.766;2023-03-25T09:47:21;95150.03;;;9.94;72.75
13407;BME280;6774;48.208;10.766;2023-03-25T09:49:53;95153.22;;;10.11;71.94
13407;BME280;6774;48.208;10.766;2023-03-25T09:52:27;95144.69;;;9.81;73.02
13407;BME280;6774;48.208;10.766;2023-03-25T09:54:58;95125.03;;;9.56;71.65
13407;BME280;6774;48.208;10.766;2023-03-25T09:57:31;95137.72;;;9.46;72.31
13407;BME280;6774;48.208;10.766;2023-03-25T10:00:05;95133.31;;;9.53;73.09
13407;BME280;6774;48.208;10.766;2023-03-25T10:02:37;95140.47;;;9.37;72.25
13407;BME280;6774;48.208;10.766;2023-03-25T10:05:18;95139.97;;;9.27;71.75
13407;BME280;6774;48.208;10.766;2023-03-25T10:07:59;95131.94;;;9.14;72.11
13407;BME280;6774;48.208;10.766;2023-03-25T10:10:35;95150.06;;;9.45;73.30
13407;BME280;6774;48.208;10.766;2023-03-25T10:13:13;95148.00;;;9.40;72.46
13407;BME280;6774;48.208;10.766;2023-03-25T10:15:49;95130.41;;;9.69;73.32
13407;BME280;6774;48.208;10.766;2023-03-25T10:18:30;95130.69;;;9.53;72.40
13407;BME280;6774;48.208;10.766;2023-03-25T10:21:06;95132.97;;;9.34;73.49
13407;BME280;6774;48.208;10.766;2023-03-25T10:23:40;95135.34;;;9.79;72.47
13407;BME280;6774;48.208;10.766;2023-03-25T10:26:12;95121.50;;;9.70;74.96
13407;BME280;6774;48.208;10.766;2023-03-25T10:28:48;95133.00;;;9.90;73.01
13407;BME280;6774;48.208;10.766;2023-03-25T10:31:19;95130.16;;;9.64;75.39
13407;BME280;6774;48.208;10.766;2023-03-25T10:33:52;95118.69;;;9.72;75.30
13407;BME280;6774;48.208;10.766;2023-03-25T10:36:28;95135.03;;;9.88;74.44
13407;BME280;6774;48.208;10.766;2023-03-25T10:38:58;95128.44;;;9.78;74.38
13407;BME280;6774;48.208;10.766;2023-03-25T10:41:29;95116.41;;;9.96;72.96
13407;BME280;6774;48.208;10.766;2023-03-25T10:43:59;95123.69;;;9.94;73.88
13407;BME280;6774;48.208;10.766;2023-03-25T10:46:29;95113.06;;;9.81;72.63
13407;BME280;6774;48.208;10.766;2023-03-25T10:48:58;95121.78;;;10.10;73.54
13407;BME280;6774;48.208;10.766;2023-03-25T10:51:27;95111.69;;;10.20;73.22
13407;BME280;6774;48.208;10.766;2023-03-25T10:53:56;95098.97;;;10.30;72.30
13407;BME280;6774;48.208;10.766;2023-03-25T10:56:26;95098.97;;;10.30;71.68
13407;BME280;6774;48.208;10.766;2023-03-25T10:59:00;95097.59;;;10.41;72.56
13407;BME280;6774;48.208;10.766;2023-03-25T11:01:34;95092.78;;;10.10;71.32
13407;BME280;6774;48.208;10.766;2023-03-25T11:04:05;95090.53;;;10.07;71.98
13407;BME280;6774;48.208;10.766;2023-03-25T11:06:36;95089.22;;;10.24;72.81
13407;BME280;6774;48.208;10.766;2023-03-25T11:09:14;95102.75;;;10.21;70.96
13407;BME280;6774;48.208;10.766;2023-03-25T11:11:44;95095.31;;;9.96;71.63
13407;BME280;6774;48.208;10.766;2023-03-25T11:14:14;95094.47;;;9.89;71.42
13407;BME280;6774;48.208;10.766;2023-03-25T11:16:45;95096.09;;;9.90;71.01
13407;BME280;6774;48.208;10.766;2023-03-25T11:19:17;95101.59;;;9.61;70.94
13407;BME280;6774;48.208;10.766;2023-03-25T11:21:47;95085.94;;;9.87;73.05
13407;BME280;6774;48.208;10.766;2023-03-25T11:24:21;95099.16;;;9.66;72.49
13407;BME280;6774;48.208;10.766;2023-03-25T11:26:49;95093.63;;;9.82;73.60
13407;BME280;6774;48.208;10.766;2023-03-25T11:29:23;95096.88;;;9.84;70.81
13407;BME280;6774;48.208;10.766;2023-03-25T11:31:57;95091.75;;;10.45;72.53
13407;BME280;6774;48.208;10.766;2023-03-25T11:34:31;95085.41;;;10.33;70.43
13407;BME280;6774;48.208;10.766;2023-03-25T11:37:01;95074.00;;;10.87;70.85
13407;BME280;6774;48.208;10.766;2023-03-25T11:39:32;95077.69;;;10.93;70.20
13407;BME280;6774;48.208;10.766;2023-03-25T11:42:12;95068.75;;;10.94;69.00
13407;BME280;6774;48.208;10.766;2023-03-25T11:44:48;95082.56;;;10.89;69.51
13407;BME280;6774;48.208;10.766;2023-03-25T11:47:21;95085.31;;;10.68;69.43
13407;BME280;6774;48.208;10.766;2023-03-25T11:49:51;95109.16;;;10.05;68.72
13407;BME280;6774;48.208;10.766;2023-03-25T11:52:21;95074.72;;;10.07;68.58
13407;BME280;6774;48.208;10.766;2023-03-25T11:54:52;95079.91;;;9.93;69.18
13407;BME280;6774;48.208;10.766;2023-03-25T11:57:23;95073.69;;;10.42;69.72
13407;BME280;6774;48.208;10.766;2023-03-25T12:00:01;95064.78;;;10.43;68.75
13407;BME280;6774;48.208;10.766;2023-03-25T12:02:38;95081.25;;;10.59;69.35
13407;BME280;6774;48.208;10.766;2023-03-25T12:05:12;95059.59;;;10.96;70.32
13407;BME280;6774;48.208;10.766;2023-03-25T12:07:42;95062.41;;;10.75;69.12
13407;BME280;6774;48.208;10.766;2023-03-25T12:10:16;95049.47;;;10.32;70.23
13407;BME280;6774;48.208;10.766;2023-03-25T12:12:52;95044.66;;;10.36;69.49
13407;BME280;6774;48.208;10.766;2023-03-25T12:15:29;95046.03;;;10.25;69.70
13407;BME280;6774;48.208;10.766;2023-03-25T12:18:15;95042.13;;;10.75;69.51
13407;BME280;6774;48.208;10.766;2023-03-25T12:20:56;95049.06;;;10.90;68.63
13407;BME280;6774;48.208;10.766;2023-03-25T12:23:35;95039.84;;;10.59;69.57
13407;BME280;6774;48.208;10.766;2023-03-25T12:26:08;95035.22;;;10.88;67.83
13407;BME280;6774;48.208;10.766;2023-03-25T12:28:59;95027.53;;;10.93;68.72
13407;BME280;6774;48.208;10.766;2023-03-25T12:31:41;95018.00;;;11.11;66.47
13407;BME280;6774;48.208;10.766;2023-03-25T12:34:23;95013.31;;;11.40;68.60
13407;BME280;6774;48.208;10.766;2023-03-25T12:37:04;95022.25;;;11.39;67.79
13407;BME280;6774;48.208;10.766;2023-03-25T12:39:45;94995.00;;;11.72;67.17
13407;BME280;6774;48.208;10.766;2023-03-25T12:42:29;95007.22;;;11.53;64.88
13407;BME280;6774;48.208;10.766;2023-03-25T12:45:28;95022.19;;;11.79;67.29
13407;BME280;6774;48.208;10.766;2023-03-25T12:48:06;95004.72;;;11.78;65.69
13407;BME280;6774;48.208;10.766;2023-03-25T12:50:43;95009.84;;;11.59;65.34
13407;BME280;6774;48.208;10.766;2023-03-25T12:53:31;95011.72;;;11.19;64.45
13407;BME280;6774;48.208;10.766;2023-03-25T12:56:15;94985.69;;;11.36;63.28
13407;BME280;6774;48.208;10.766;2023-03-25T13:01:45;95009.22;;;11.64;65.89
13407;BME280;6774;48.208;10.766;2023-03-25T13:04:35;95014.44;;;12.10;66.38
13407;BME280;6774;48.208;10.766;2023-03-25T13:07:10;95025.03;;;11.97;65.04
13407;BME280;6774;48.208;10.766;2023-03-25T13:09:49;95023.31;;;11.25;65.59
13407;BME280;6774;48.208;10.766;2023-03-25T13:12:27;95029.53;;;11.77;65.42
13407;BME280;6774;48.208;10.766;2023-03-25T13:15:03;95024.44;;;12.02;65.23
13407;BME280;6774;48.208;10.766;2023-03-25T13:17:36;95039.34;;;11.10;65.13
13407;BME280;6774;48.208;10.766;2023-03-25T13:20:09;95049.47;;;11.33;67.28
13407;BME280;6774;48.208;10.766;2023-03-25T13:22:39;95028.94;;;11.68;67.86
13407;BME280;6774;48.208;10.766;2023-03-25T13:25:18;95031.72;;;12.06;66.84
13407;BME280;6774;48.208;10.766;2023-03-25T13:27:49;95033.44;;;11.15;64.51
13407;BME280;6774;48.208;10.766;2023-03-25T13:30:25;95037.06;;;11.66;66.12
13407;BME280;6774;48.208;10.766;2023-03-25T13:33:02;95045.63;;;11.55;65.85
13407;BME280;6774;48.208;10.766;2023-03-25T13:35:39;95047.88;;;11.19;64.78
13407;BME280;6774;48.208;10.766;2023-03-25T13:38:13;95047.44;;;11.42;65.02
13407;BME280;6774;48.208;10.766;2023-03-25T13:40:47;95030.19;;;11.52;65.86
13407;BME280;6774;48.208;10.766;2023-03-25T13:43:25;95019.28;;;12.13;63.99